sensor_id;sensor_type;location;lat;lon;timestamp;pressure;altitude;pressure_sealevel;temperature;humidity
13604;BME280;24578;48.264;11.436;2022-10-22T00:02:53;95880.56;;;12.51;100.00
13604;BME280;24578;48.264;11.436;2022-10-22T00:05:53;95865.94;;;12.49;100.00
13604;BME280;24578;48.264;11.436;2022-10-22T00:08:53;95871.13;;;12.49;100.00
13604;BME280;24578;48.264;11.436;2022-10-22T00:11:53;95883.25;;;12.49;100.00
13604;BME280;24578;48.264;11.436;2022-10-22T00:14:54;95878.06;;;12.49;100.00
13604;BME280;24578;48.264;11.436;2022-10-22T00:17:54;95880.66;;;12.49;100.00
13604;BME280;24578;48.264;11.436;2022-10-22T00:20:55;95879.97;;;12.47;100.00
13604;BME280;24578;48.264;11.436;2022-10-22T00:23:55;95885.31;;;12.45;100.00
13604;BME280;24578;48.264;11.436;2022-10-22T00:26:56;95885.16;;;12.47;100.00
13604;BME280;24578;48.264;11.436;2022-10-22T00:29:56;95899.66;;;12.49;100.00
13604;BME280;24578;48.264;11.436;2022-10-22T00:32:56;95895.28;;;12.50;100.00
13604;BME280;24578;48.264;11.436;2022-10-22T00:35:56;95909.22;;;12.49;100.00
13604;BME280;24578;48.264;11.436;2022-10-22T00:38:57;95919.34;;;12.52;100.00
13604;BME280;24578;48.264;11.436;2022-10-22T00:41:57;95921.81;;;12.54;100.00
13604;BME280;24578;48.264;11.436;2022-10-22T00:51:16;95956.53;;;12.62;100.00
13604;BME280;24578;48.264;11.436;2022-10-22T00:54:17;95966.38;;;12.59;100.00
13604;BME280;24578;48.264;11.436;2022-10-22T00:57:18;95955.28;;;12.57;100.00
13604;BME280;24578;48.264;11.436;2022-10-22T01:00:18;95939.97;;;12.54;100.00
13604;BME280;24578;48.264;11.436;2022-10-22T01:03:19;95936.44;;;12.55;100.00
13604;BME280;24578;48.264;11.436;2022-10-22T01:06:29;95930.69;;;12.51;100.00
13604;BME280;24578;48.264;11.436;2022-10-22T01:09:49;95921.94;;;12.52;100.00
13604;BME280;24578;48.264;11.436;2022-10-22T01:22:50;95897.72;;;12.42;100.00
13604;BME280;24578;48.264;11.436;2022-10-22T01:26:04;95887.34;;;12.42;100.00
13604;BME280;24578;48.264;11.436;2022-10-22T01:32:15;95905.38;;;12.43;100.00
13604;BME280;24578;48.264;11.436;2022-10-22T01:35:17;95909.75;;;12.43;100.00
13604;BME280;24578;48.264;11.436;2022-10-22T01:38:20;95919.31;;;12.42;100.00
13604;BME280;24578;48.264;11.436;2022-10-22T01:41:22;95923.28;;;12.46;100.00
13604;BME280;24578;48.264;11.436;2022-10-22T01:50:26;95913.31;;;12.42;100.00
13604;BME280;24578;48.264;11.436;2022-10-22T01:53:46;95906.56;;;12.39;100.00
13604;BME280;24578;48.264;11.436;2022-10-22T02:02:55;95916.97;;;12.39;100.00
13604;BME280;24578;48.264;11.436;2022-10-22T02:05:58;95919.56;;;12.39;100.00
13604;BME280;24578;48.264;11.436;2022-10-22T02:09:00;95939.50;;;12.39;100.00
13604;BME280;24578;48.264;11.436;2022-10-22T02:12:02;95940.31;;;12.39;100.00
13604;BME280;24578;48.264;11.436;2022-10-22T02:15:04;95943.88;;;12.38;100.00
13604;BME280;24578;48.264;11.436;2022-10-22T02:18:05;95942.09;;;12.39;100.00
13604;BME280;24578;48.264;11.436;2022-10-22T02:21:06;95947.31;;;12.39;100.00
13604;BME280;24578;48.264;11.436;2022-10-22T02:24:07;95961.38;;;12.36;100.00
13604;BME280;24578;48.264;11.436;2022-10-22T02:27:27;95963.97;;;12.36;100.00
13604;BME280;24578;48.264;11.436;2022-10-22T02:30:29;95963.69;;;12.39;100.00
13604;BME280;24578;48.264;11.436;2022-10-22T02:33:33;95965.72;;;12.36;100.00
13604;BME280;24578;48.264;11.436;2022-10-22T02:36:35;95965.59;;;12.37;100.00
13604;BME280;24578;48.264;11.436;2022-10-22T02:39:36;95965.59;;;12.37;100.00
13604;BME280;24578;48.264;11.436;2022-10-22T02:42:38;95972.41;;;12.38;100.00
13604;BME280;24578;48.264;11.436;2022-10-22T02:45:39;95974.06;;;12.39;100.00
13604;BME280;24578;48.264;11.436;2022-10-22T02:48:39;95970.50;;;12.40;100.00
13604;BME280;24578;48.264;11.436;2022-10-22T02:51:39;95972.84;;;12.43;100.00
13604;BME280;24578;48.264;11.436;2022-10-22T02:54:40;95970.16;;;12.45;100.00
13604;BME280;24578;48.264;11.436;2022-10-22T02:57:40;95973.31;;;12.48;100.00
13604;BME280;24578;48.264;11.436;2022-10-22T03:00:40;95981.34;;;12.45;100.00
13604;BME280;24578;48.264;11.436;2022-10-22T03:03:40;95967.16;;;12.49;100.00
13604;BME280;24578;48.264;11.436;2022-10-22T03:06:40;95969.19;;;12.46;100.00
13604;BME280;24578;48.264;11.436;2022-10-22T03:09:43;95967.66;;;12.43;100.00
13604;BME280;24578;48.264;11.436;2022-10-22T03:12:43;95971.22;;;12.42;100.00
13604;BME280;24578;48.264;11.436;2022-10-22T03:15:43;95971.22;;;12.42;100.00
13604;BME280;24578;48.264;11.436;2022-10-22T03:18:43;95974.50;;;12.44;100.00
13604;BME280;24578;48.264;11.436;2022-10-22T03:21:48;95975.34;;;12.45;100.00
13604;BME280;24578;48.264;11.436;2022-10-22T03:24:50;95985.84;;;12.43;100.00
13604;BME280;24578;48.264;11.436;2022-10-22T03:27:51;95990.72;;;12.37;100.00
13604;BME280;24578;48.264;11.436;2022-10-22T03:30:53;95982.88;;;12.27;100.00
13604;BME280;24578;48.264;11.436;2022-10-22T03:33:53;95986.66;;;12.23;100.00
13604;BME280;24578;48.264;11.436;2022-10-22T03:36:53;95996.88;;;12.14;100.00
13604;BME280;24578;48.264;11.436;2022-10-22T03:39:55;96021.63;;;12.18;100.00
13604;BME280;24578;48.264;11.436;2022-10-22T03:42:57;96039.34;;;12.13;100.00
13604;BME280;24578;48.264;11.436;2022-10-22T03:45:57;96049.53;;;12.05;100.00
13604;BME280;24578;48.264;11.436;2022-10-22T03:48:57;96043.88;;;12.00;100.00
13604;BME280;24578;48.264;11.436;2022-10-22T03:52:03;96040.69;;;11.96;100.00
13604;BME280;24578;48.264;11.436;2022-10-22T03:55:04;96035.97;;;11.90;100.00
13604;BME280;24578;48.264;11.436;2022-10-22T03:58:04;96033.44;;;11.79;100.00
13604;BME280;24578;48.264;11.436;2022-10-22T04:01:08;96022.94;;;11.80;100.00
13604;BME280;24578;48.264;11.436;2022-10-22T04:04:09;96030.53;;;11.72;100.00
13604;BME280;24578;48.264;11.436;2022-10-22T04:07:09;96029.56;;;11.73;100.00
13604;BME280;24578;48.264;11.436;2022-10-22T04:10:09;96038.78;;;11.66;100.00
13604;BME280;24578;48.264;11.436;2022-10-22T04:13:10;96032.06;;;11.63;100.00
13604;BME280;24578;48.264;11.436;2022-10-22T04:16:15;96033.38;;;11.57;100.00
13604;BME280;24578;48.264;11.436;2022-10-22T04:19:15;96021.97;;;11.49;100.00
13604;BME280;24578;48.264;11.436;2022-10-22T04:22:15;96025.19;;;11.41;100.00
13604;BME280;24578;48.264;11.436;2022-10-22T04:25:15;96034.94;;;11.37;100.00
13604;BME280;24578;48.264;11.436;2022-10-22T04:28:16;96031.78;;;11.34;100.00
13604;BME280;24578;48.264;11.436;2022-10-22T04:31:20;96029.31;;;11.32;100.00
13604;BME280;24578;48.264;11.436;2022-10-22T04:34:20;96022.50;;;11.31;100.00
13604;BME280;24578;48.264;11.436;2022-10-22T04:37:20;96025.19;;;11.30;100.00
13604;BME280;24578;48.264;11.436;2022-10-22T04:40:21;96035.81;;;11.26;100.00
13604;BME280;24578;48.264;11.436;2022-10-22T04:43:21;96026.25;;;11.27;100.00
13604;BME280;24578;48.264;11.436;2022-10-22T04:46:21;96030.84;;;11.23;100.00
13604;BME280;24578;48.264;11.436;2022-10-22T04:49:22;96028.50;;;11.20;100.00
13604;BME280;24578;48.264;11.436;2022-10-22T04:52:22;96035.34;;;11.21;100.00
13604;BME280;24578;48.264;11.436;2022-10-22T04:55:22;96044.75;;;11.22;100.00
13604;BME280;24578;48.264;11.436;2022-10-22T04:58:23;96040.16;;;11.26;100.00
13604;BME280;24578;48.264;11.436;2022-10-22T05:01:29;96038.50;;;11.25;100.00
13604;BME280;24578;48.264;11.436;2022-10-22T05:04:30;96041.94;;;11.25;100.00
13604;BME280;24578;48.264;11.436;2022-10-22T05:07:30;96042.88;;;11.24;100.00
13604;BME280;24578;48.264;11.436;2022-10-22T05:10:31;96047.34;;;11.22;100.00
13604;BME280;24578;48.264;11.436;2022-10-22T05:13:31;96049.94;;;11.22;100.00
13604;BME280;24578;48.264;11.436;2022-10-22T05:16:31;96047.34;;;11.22;100.00
13604;BME280;24578;48.264;11.436;2022-10-22T05:19:32;96039.56;;;11.22;100.00
13604;BME280;24578;48.264;11.436;2022-10-22T05:22:32;96029.34;;;11.21;100.00
13604;BME280;24578;48.264;11.436;2022-10-22T05:25:38;96032.97;;;11.18;100.00
13604;BME280;24578;48.264;11.436;2022-10-22T05:28:39;96046.06;;;11.17;100.00
13604;BME280;24578;48.264;11.436;2022-10-22T05:31:39;96050.53;;;11.15;100.00
13604;BME280;24578;48.264;11.436;2022-10-22T05:34:40;96048.88;;;11.14;100.00
13604;BME280;24578;48.264;11.436;2022-10-22T05:37:40;96046.44;;;11.12;100.00
13604;BME280;24578;48.264;11.436;2022-10-22T05:40:40;96047.22;;;11.12;100.00
13604;BME280;24578;48.264;11.436;2022-10-22T05:43:40;96048.19;;;11.11;100.00
13604;BME280;24578;48.264;11.436;2022-10-22T05:46:40;96053.50;;;11.10;100.00
13604;BME280;24578;48.264;11.436;2022-10-22T05:49:42;96062.28;;;11.07;100.00
13604;BME280;24578;48.264;11.436;2022-10-22T05:52:42;96063.94;;;11.08;100.00
13604;BME280;24578;48.264;11.436;2022-10-22T05:55:42;96065.81;;;11.06;100.00
13604;BME280;24578;48.264;11.436;2022-10-22T05:58:43;96068.19;;;11.09;100.00
13604;BME280;24578;48.264;11.436;2022-10-22T06:01:44;96055.94;;;11.11;100.00
13604;BME280;24578;48.264;11.436;2022-10-22T06:04:44;96056.88;;;11.10;100.00
13604;BME280;24578;48.264;11.436;2022-10-22T06:07:44;96049.81;;;11.12;100.00
13604;BME280;24578;48.264;11.436;2022-10-22T06:10:44;96050.91;;;11.10;100.00
13604;BME280;24578;48.264;11.436;2022-10-22T06:13:45;96047.03;;;11.04;100.00
13604;BME280;24578;48.264;11.436;2022-10-22T06:16:45;96054.53;;;11.07;100.00
13604;BME280;24578;48.264;11.436;2022-10-22T06:19:45;96067.97;;;11.12;100.00
13604;BME280;24578;48.264;11.436;2022-10-22T06:22:46;96065.22;;;11.14;100.00
13604;BME280;24578;48.264;11.436;2022-10-22T06:25:57;96063.34;;;11.16;100.00
13604;BME280;24578;48.264;11.436;2022-10-22T06:28:57;96058.78;;;11.20;100.00
13604;BME280;24578;48.264;11.436;2022-10-22T06:31:57;96063.34;;;11.16;100.00
13604;BME280;24578;48.264;11.436;2022-10-22T06:34:58;96064.44;;;11.14;100.00
13604;BME280;24578;48.264;11.436;2022-10-22T06:37:58;96071.97;;;11.17;100.00
13604;BME280;24578;48.264;11.436;2022-10-22T06:41:05;96092.47;;;11.20;100.00
13604;BME280;24578;48.264;11.436;2022-10-22T06:44:06;96116.94;;;11.27;100.00
13604;BME280;24578;48.264;11.436;2022-10-22T06:47:06;96110.69;;;11.30;100.00
13604;BME280;24578;48.264;11.436;2022-10-22T06:50:07;96111.41;;;11.32;100.00
13604;BME280;24578;48.264;11.436;2022-10-22T06:53:07;96121.66;;;11.33;100.00
13604;BME280;24578;48.264;11.436;2022-10-22T06:56:12;96128.50;;;11.34;100.00
13604;BME280;24578;48.264;11.436;2022-10-22T06:59:12;96121.31;;;11.38;100.00
13604;BME280;24578;48.264;11.436;2022-10-22T07:02:13;96135.91;;;11.39;100.00
13604;BME280;24578;48.264;11.436;2022-10-22T07:05:13;96152.16;;;11.41;100.00
13604;BME280;24578;48.264;11.436;2022-10-22T07:08:13;96172.66;;;11.44;100.00
13604;BME280;24578;48.264;11.436;2022-10-22T07:11:14;96169.94;;;11.46;100.00
13604;BME280;24578;48.264;11.436;2022-10-22T07:14:15;96172.31;;;11.49;100.00
13604;BME280;24578;48.264;11.436;2022-10-22T07:17:15;96178.22;;;11.51;100.00
13604;BME280;24578;48.264;11.436;2022-10-22T07:20:15;96185.84;;;11.52;100.00
13604;BME280;24578;48.264;11.436;2022-10-22T07:23:17;96190.81;;;11.55;100.00
13604;BME280;24578;48.264;11.436;2022-10-22T07:26:18;96200.00;;;11.60;100.00
13604;BME280;24578;48.264;11.436;2022-10-22T07:29:21;96193.38;;;11.67;100.00
13604;BME280;24578;48.264;11.436;2022-10-22T07:32:22;96198.56;;;11.67;100.00
13604;BME280;24578;48.264;11.436;2022-10-22T07:35:22;96210.38;;;11.71;100.00
13604;BME280;24578;48.264;11.436;2022-10-22T07:38:22;96204.09;;;11.85;100.00
13604;BME280;24578;48.264;11.436;2022-10-22T07:41:23;96211.03;;;12.07;100.00
13604;BME280;24578;48.264;11.436;2022-10-22T07:44:23;96221.97;;;12.33;100.00
13604;BME280;24578;48.264;11.436;2022-10-22T07:47:23;96221.34;;;12.41;100.00
13604;BME280;24578;48.264;11.436;2022-10-22T07:50:24;96231.66;;;12.64;100.00
13604;BME280;24578;48.264;11.436;2022-10-22T07:53:24;96218.25;;;12.80;100.00
13604;BME280;24578;48.264;11.436;2022-10-22T07:56:24;96232.25;;;12.89;100.00
13604;BME280;24578;48.264;11.436;2022-10-22T07:59:24;96229.03;;;12.97;100.00
13604;BME280;24578;48.264;11.436;2022-10-22T08:02:25;96235.25;;;13.05;100.00
13604;BME280;24578;48.264;11.436;2022-10-22T08:05:25;96239.25;;;13.09;100.00
13604;BME280;24578;48.264;11.436;2022-10-22T08:08:25;96233.59;;;13.04;100.00
13604;BME280;24578;48.264;11.436;2022-10-22T08:11:25;96237.84;;;13.05;100.00
13604;BME280;24578;48.264;11.436;2022-10-22T08:14:25;96240.91;;;13.10;100.00
13604;BME280;24578;48.264;11.436;2022-10-22T08:17:26;96243.38;;;13.12;100.00
13604;BME280;24578;48.264;11.436;2022-10-22T08:20:27;96247.94;;;13.20;100.00
13604;BME280;24578;48.264;11.436;2022-10-22T08:23:27;96258.22;;;13.21;100.00
13604;BME280;24578;48.264;11.436;2022-10-22T08:26:28;96261.38;;;13.25;100.00
13604;BME280;24578;48.264;11.436;2022-10-22T08:29:28;96257.13;;;13.24;100.00
13604;BME280;24578;48.264;11.436;2022-10-22T08:32:29;96260.44;;;13.26;100.00
13604;BME280;24578;48.264;11.436;2022-10-22T08:35:29;96270.81;;;13.26;100.00
13604;BME280;24578;48.264;11.436;2022-10-22T08:38:30;96272.03;;;13.22;100.00
13604;BME280;24578;48.264;11.436;2022-10-22T08:41:35;96266.81;;;13.22;100.00
13604;BME280;24578;48.264;11.436;2022-10-22T08:44:51;96275.19;;;13.25;100.00
13604;BME280;24578;48.264;11.436;2022-10-22T08:50:58;96285.25;;;13.19;100.00
13604;BME280;24578;48.264;11.436;2022-10-22T08:54:13;96286.34;;;13.37;100.00
13604;BME280;24578;48.264;11.436;2022-10-22T09:00:30;96280.97;;;13.72;100.00
13604;BME280;24578;48.264;11.436;2022-10-22T09:06:34;96297.13;;;13.75;100.00
13604;BME280;24578;48.264;11.436;2022-10-22T09:09:39;96304.03;;;13.86;100.00
13604;BME280;24578;48.264;11.436;2022-10-22T09:12:41;96307.94;;;14.01;100.00
13604;BME280;24578;48.264;11.436;2022-10-22T09:15:41;96319.91;;;14.14;100.00
13604;BME280;24578;48.264;11.436;2022-10-22T09:18:54;96319.38;;;14.20;100.00
13604;BME280;24578;48.264;11.436;2022-10-22T09:25:30;96313.88;;;14.54;100.00
13604;BME280;24578;48.264;11.436;2022-10-22T09:28:32;96312.34;;;14.52;100.00
13604;BME280;24578;48.264;11.436;2022-10-22T09:31:33;96307.03;;;14.53;100.00
13604;BME280;24578;48.264;11.436;2022-10-22T09:34:33;96309.41;;;14.76;100.00
13604;BME280;24578;48.264;11.436;2022-10-22T09:37:33;96308.47;;;14.97;100.00
13604;BME280;24578;48.264;11.436;2022-10-22T09:40:44;96303.94;;;14.99;100.00
13604;BME280;24578;48.264;11.436;2022-10-22T09:43:48;96310.13;;;15.07;100.00
13604;BME280;24578;48.264;11.436;2022-10-22T09:46:48;96309.13;;;15.18;100.00
13604;BME280;24578;48.264;11.436;2022-10-22T09:49:48;96320.56;;;15.17;100.00
13604;BME280;24578;48.264;11.436;2022-10-22T09:56:26;96318.19;;;15.44;100.00
13604;BME280;24578;48.264;11.436;2022-10-22T09:59:28;96318.16;;;15.53;100.00
13604;BME280;24578;48.264;11.436;2022-10-22T10:02:29;96326.00;;;15.34;100.00
13604;BME280;24578;48.264;11.436;2022-10-22T10:05:31;96323.53;;;15.03;100.00
13604;BME280;24578;48.264;11.436;2022-10-22T10:08:31;96331.25;;;14.95;100.00
13604;BME280;24578;48.264;11.436;2022-10-22T10:11:34;96331.25;;;15.24;100.00
13604;BME280;24578;48.264;11.436;2022-10-22T10:14:38;96320.25;;;15.50;100.00
13604;BME280;24578;48.264;11.436;2022-10-22T10:17:45;96311.38;;;15.80;100.00
13604;BME280;24578;48.264;11.436;2022-10-22T10:24:04;96307.91;;;16.37;100.00
13604;BME280;24578;48.264;11.436;2022-10-22T10:30:13;96300.56;;;18.20;100.00
13604;BME280;24578;48.264;11.436;2022-10-22T10:33:19;96308.56;;;18.62;100.00
13604;BME280;24578;48.264;11.436;2022-10-22T10:49:01;96299.84;;;20.35;87.39
13604;BME280;24578;48.264;11.436;2022-10-22T11:01:18;96299.16;;;21.81;80.96
13604;BME280;24578;48.264;11.436;2022-10-22T11:07:49;96289.59;;;22.70;76.43
13604;BME280;24578;48.264;11.436;2022-10-22T11:10:53;96283.63;;;22.83;75.78
13604;BME280;24578;48.264;11.436;2022-10-22T11:13:56;96284.97;;;23.37;74.10
13604;BME280;24578;48.264;11.436;2022-10-22T11:17:07;96287.97;;;23.55;72.35
13604;BME280;24578;48.264;11.436;2022-10-22T11:20:32;96273.19;;;23.33;71.63
13604;BME280;24578;48.264;11.436;2022-10-22T11:23:37;96285.91;;;23.07;68.35
13604;BME280;24578;48.264;11.436;2022-10-22T11:29:46;96275.72;;;22.83;71.00
13604;BME280;24578;48.264;11.436;2022-10-22T11:32:52;96280.44;;;22.50;72.53
13604;BME280;24578;48.264;11.436;2022-10-22T11:35:53;96278.56;;;22.44;71.42
13604;BME280;24578;48.264;11.436;2022-10-22T11:38:56;96296.03;;;21.85;76.04
13604;BME280;24578;48.264;11.436;2022-10-22T11:41:57;96283.56;;;21.79;78.06
13604;BME280;24578;48.264;11.436;2022-10-22T11:45:00;96289.44;;;21.66;76.38
13604;BME280;24578;48.264;11.436;2022-10-22T11:51:03;96281.38;;;21.83;79.33
13604;BME280;24578;48.264;11.436;2022-10-22T11:54:37;96277.56;;;22.15;78.22
13604;BME280;24578;48.264;11.436;2022-10-22T11:57:41;96274.81;;;22.39;74.53
13604;BME280;24578;48.264;11.436;2022-10-22T12:00:45;96274.75;;;21.72;76.62
13604;BME280;24578;48.264;11.436;2022-10-22T12:03:50;96282.13;;;21.15;79.03
13604;BME280;24578;48.264;11.436;2022-10-22T12:06:54;96280.44;;;20.76;80.13
13604;BME280;24578;48.264;11.436;2022-10-22T12:09:56;96280.75;;;20.73;83.28
13604;BME280;24578;48.264;11.436;2022-10-22T12:12:58;96282.25;;;20.35;84.03
13604;BME280;24578;48.264;11.436;2022-10-22T12:16:01;96275.81;;;20.69;85.95
13604;BME280;24578;48.264;11.436;2022-10-22T12:19:45;96277.72;;;21.30;82.57
13604;BME280;24578;48.264;11.436;2022-10-22T12:22:27;96275.91;;;21.69;78.85
13604;BME280;24578;48.264;11.436;2022-10-22T12:25:30;96271.03;;;21.81;78.29
13604;BME280;24578;48.264;11.436;2022-10-22T12:28:38;96269.94;;;21.75;75.48
13604;BME280;24578;48.264;11.436;2022-10-22T12:31:39;96263.03;;;21.74;75.27
13604;BME280;24578;48.264;11.436;2022-10-22T12:34:46;96259.94;;;22.16;75.38
13604;BME280;24578;48.264;11.436;2022-10-22T12:37:50;96256.28;;;22.17;72.43
13604;BME280;24578;48.264;11.436;2022-10-22T12:40:53;96256.16;;;22.40;73.67
13604;BME280;24578;48.264;11.436;2022-10-22T12:43:57;96259.00;;;22.24;72.39
13604;BME280;24578;48.264;11.436;2022-10-22T12:46:57;96253.88;;;22.37;72.96
13604;BME280;24578;48.264;11.436;2022-10-22T12:49:58;96250.34;;;22.45;71.61
13604;BME280;24578;48.264;11.436;2022-10-22T12:53:03;96252.25;;;22.36;72.20
13604;BME280;24578;48.264;11.436;2022-10-22T12:56:04;96250.28;;;22.23;72.01
13604;BME280;24578;48.264;11.436;2022-10-22T12:59:08;96248.75;;;22.29;70.09
13604;BME280;24578;48.264;11.436;2022-10-22T13:02:18;96251.50;;;21.90;71.60
13604;BME280;24578;48.264;11.436;2022-10-22T13:05:29;96247.28;;;21.51;73.73
13604;BME280;24578;48.264;11.436;2022-10-22T13:08:29;96243.44;;;21.54;73.34
13604;BME280;24578;48.264;11.436;2022-10-22T13:11:36;96248.78;;;21.69;73.01
13604;BME280;24578;48.264;11.436;2022-10-22T13:14:37;96243.16;;;21.72;72.06
13604;BME280;24578;48.264;11.436;2022-10-22T13:17:38;96242.44;;;21.55;71.95
13604;BME280;24578;48.264;11.436;2022-10-22T13:20:48;96237.69;;;21.73;70.60
13604;BME280;24578;48.264;11.436;2022-10-22T13:23:53;96235.78;;;21.82;69.74
13604;BME280;24578;48.264;11.436;2022-10-22T13:26:54;96234.31;;;21.95;69.91
13604;BME280;24578;48.264;11.436;2022-10-22T13:29:55;96227.69;;;21.84;70.01
13604;BME280;24578;48.264;11.436;2022-10-22T13:32:59;96230.16;;;21.85;68.33
13604;BME280;24578;48.264;11.436;2022-10-22T13:36:00;96232.50;;;21.80;70.26
13604;BME280;24578;48.264;11.436;2022-10-22T13:39:01;96226.84;;;22.13;69.92
13604;BME280;24578;48.264;11.436;2022-10-22T13:42:02;96232.09;;;22.28;68.53
13604;BME280;24578;48.264;11.436;2022-10-22T13:45:02;96229.84;;;22.10;70.87
13604;BME280;24578;48.264;11.436;2022-10-22T13:48:02;96237.13;;;22.08;67.82
13604;BME280;24578;48.264;11.436;2022-10-22T13:51:03;96234.84;;;22.05;67.42
13604;BME280;24578;48.264;11.436;2022-10-22T13:54:08;96240.13;;;22.05;67.18
13604;BME280;24578;48.264;11.436;2022-10-22T13:57:09;96233.03;;;21.90;69.94
13604;BME280;24578;48.264;11.436;2022-10-22T14:00:11;96241.84;;;21.83;71.55
13604;BME280;24578;48.264;11.436;2022-10-22T14:03:12;96248.06;;;21.52;70.49
13604;BME280;24578;48.264;11.436;2022-10-22T14:06:15;96248.75;;;21.30;69.48
13604;BME280;24578;48.264;11.436;2022-10-22T14:09:16;96250.97;;;21.04;69.08
13604;BME280;24578;48.264;11.436;2022-10-22T14:12:16;96252.72;;;20.88;71.27
13604;BME280;24578;48.264;11.436;2022-10-22T14:15:17;96249.06;;;20.66;72.08
13604;BME280;24578;48.264;11.436;2022-10-22T14:18:22;96248.31;;;20.49;72.16
13604;BME280;24578;48.264;11.436;2022-10-22T14:21:25;96249.59;;;20.30;73.81
13604;BME280;24578;48.264;11.436;2022-10-22T14:24:27;96252.59;;;20.18;75.40
13604;BME280;24578;48.264;11.436;2022-10-22T14:27:27;96260.03;;;20.06;76.42
13604;BME280;24578;48.264;11.436;2022-10-22T14:30:27;96256.66;;;19.89;77.72
13604;BME280;24578;48.264;11.436;2022-10-22T14:33:30;96262.72;;;19.82;76.48
13604;BME280;24578;48.264;11.436;2022-10-22T14:36:30;96258.31;;;19.66;76.75
13604;BME280;24578;48.264;11.436;2022-10-22T14:39:30;96268.00;;;19.57;78.30
13604;BME280;24578;48.264;11.436;2022-10-22T14:42:30;96257.50;;;19.57;76.97
13604;BME280;24578;48.264;11.436;2022-10-22T14:45:32;96267.03;;;19.50;78.34
13604;BME280;24578;48.264;11.436;2022-10-22T14:48:32;96273.78;;;19.36;79.44
13604;BME280;24578;48.264;11.436;2022-10-22T14:51:33;96281.00;;;19.17;79.73
13604;BME280;24578;48.264;11.436;2022-10-22T14:54:33;96273.94;;;19.01;80.70
13604;BME280;24578;48.264;11.436;2022-10-22T14:57:34;96275.03;;;18.90;80.70
13604;BME280;24578;48.264;11.436;2022-10-22T15:00:34;96273.41;;;18.81;82.38
13604;BME280;24578;48.264;11.436;2022-10-22T15:03:35;96278.13;;;18.69;84.62
13604;BME280;24578;48.264;11.436;2022-10-22T15:06:36;96286.47;;;18.64;85.77
13604;BME280;24578;48.264;11.436;2022-10-22T15:09:36;96283.31;;;18.44;88.01
13604;BME280;24578;48.264;11.436;2022-10-22T15:12:36;96288.50;;;18.28;89.10
13604;BME280;24578;48.264;11.436;2022-10-22T15:15:39;96287.75;;;18.09;88.30
13604;BME280;24578;48.264;11.436;2022-10-22T15:18:40;96295.50;;;17.92;89.99
13604;BME280;24578;48.264;11.436;2022-10-22T15:21:40;96294.94;;;17.80;91.11
13604;BME280;24578;48.264;11.436;2022-10-22T15:24:40;96298.28;;;17.64;92.00
13604;BME280;24578;48.264;11.436;2022-10-22T15:27:43;96304.38;;;17.47;92.61
13604;BME280;24578;48.264;11.436;2022-10-22T15:30:44;96304.25;;;17.30;93.85
13604;BME280;24578;48.264;11.436;2022-10-22T15:33:44;96306.44;;;17.17;94.18
13604;BME280;24578;48.264;11.436;2022-10-22T15:36:44;96303.06;;;17.07;96.10
13604;BME280;24578;48.264;11.436;2022-10-22T15:39:44;96307.16;;;16.91;96.91
13604;BME280;24578;48.264;11.436;2022-10-22T15:42:45;96317.31;;;16.76;97.01
13604;BME280;24578;48.264;11.436;2022-10-22T15:45:46;96319.59;;;16.61;98.68
13604;BME280;24578;48.264;11.436;2022-10-22T15:48:58;96316.66;;;16.46;100.00
13604;BME280;24578;48.264;11.436;2022-10-22T15:51:58;96319.59;;;16.33;100.00
13604;BME280;24578;48.264;11.436;2022-10-22T15:55:00;96320.09;;;16.19;100.00
13604;BME280;24578;48.264;11.436;2022-10-22T15:58:05;96321.06;;;16.08;100.00
13604;BME280;24578;48.264;11.436;2022-10-22T16:01:06;96324.84;;;15.95;100.00
13604;BME280;24578;48.264;11.436;2022-10-22T16:04:07;96326.22;;;15.80;100.00
13604;BME280;24578;48.264;11.436;2022-10-22T16:07:08;96332.16;;;15.62;100.00
13604;BME280;24578;48.264;11.436;2022-10-22T16:10:08;96333.97;;;15.42;100.00
13604;BME280;24578;48.264;11.436;2022-10-22T16:13:11;96333.88;;;15.24;100.00
13604;BME280;24578;48.264;11.436;2022-10-22T16:16:11;96341.53;;;15.06;100.00
13604;BME280;24578;48.264;11.436;2022-10-22T16:19:12;96341.38;;;14.88;100.00
13604;BME280;24578;48.264;11.436;2022-10-22T16:22:13;96336.81;;;14.70;100.00
13604;BME280;24578;48.264;11.436;2022-10-22T16:25:14;96335.66;;;14.53;100.00
13604;BME280;24578;48.264;11.436;2022-10-22T16:28:14;96333.44;;;14.39;100.00
13604;BME280;24578;48.264;11.436;2022-10-22T16:31:15;96342.41;;;14.25;100.00
13604;BME280;24578;48.264;11.436;2022-10-22T16:34:16;96333.47;;;14.08;100.00
13604;BME280;24578;48.264;11.436;2022-10-22T16:37:16;96345.16;;;13.92;100.00
13604;BME280;24578;48.264;11.436;2022-10-22T16:40:17;96354.91;;;13.79;100.00
13604;BME280;24578;48.264;11.436;2022-10-22T16:43:17;96357.50;;;13.69;100.00
13604;BME280;24578;48.264;11.436;2022-10-22T16:46:18;96354.56;;;13.62;100.00
13604;BME280;24578;48.264;11.436;2022-10-22T16:49:18;96366.59;;;13.63;100.00
13604;BME280;24578;48.264;11.436;2022-10-22T16:52:19;96372.66;;;13.64;100.00
13604;BME280;24578;48.264;11.436;2022-10-22T16:55:19;96371.16;;;13.50;100.00
13604;BME280;24578;48.264;11.436;2022-10-22T16:58:19;96375.94;;;13.33;100.00
13604;BME280;24578;48.264;11.436;2022-10-22T17:01:21;96381.56;;;13.17;100.00
13604;BME280;24578;48.264;11.436;2022-10-22T17:04:23;96382.66;;;13.03;100.00
13604;BME280;24578;48.264;11.436;2022-10-22T17:07:23;96373.25;;;12.91;100.00
13604;BME280;24578;48.264;11.436;2022-10-22T17:10:23;96386.28;;;12.79;100.00